sensor_id;sensor_type;location;lat;lon;timestamp;P1;durP1;ratioP1;P2;durP2;ratioP2
8419;SDS011;4247;48.550;8.822;2024-02-21T00:01:21;8.10;;;1.70;;
8419;SDS011;4247;48.550;8.822;2024-02-21T00:03:48;7.33;;;2.07;;
8419;SDS011;4247;48.550;8.822;2024-02-21T00:06:15;3.67;;;1.37;;
8419;SDS011;4247;48.550;8.822;2024-02-21T00:08:41;5.87;;;1.70;;
8419;SDS011;4247;48.550;8.822;2024-02-21T00:11:08;2.43;;;1.77;;
8419;SDS011;4247;48.550;8.822;2024-02-21T00:13:36;11.93;;;2.20;;
8419;SDS011;4247;48.550;8.822;2024-02-21T00:16:03;9.37;;;1.97;;
8419;SDS011;4247;48.550;8.822;2024-02-21T00:18:30;6.90;;;1.80;;
8419;SDS011;4247;48.550;8.822;2024-02-21T00:20:57;4.80;;;2.43;;
8419;SDS011;4247;48.550;8.822;2024-02-21T00:23:24;4.33;;;2.17;;
8419;SDS011;4247;48.550;8.822;2024-02-21T00:25:50;6.37;;;1.93;;
8419;SDS011;4247;48.550;8.822;2024-02-21T00:28:17;8.47;;;1.93;;
8419;SDS011;4247;48.550;8.822;2024-02-21T00:30:45;4.73;;;1.87;;
8419;SDS011;4247;48.550;8.822;2024-02-21T00:33:13;4.97;;;1.57;;
8419;SDS011;4247;48.550;8.822;2024-02-21T00:35:40;7.07;;;2.90;;
8419;SDS011;4247;48.550;8.822;2024-02-21T00:38:07;6.90;;;1.40;;
8419;SDS011;4247;48.550;8.822;2024-02-21T00:40:33;4.13;;;1.60;;
8419;SDS011;4247;48.550;8.822;2024-02-21T00:43:01;5.97;;;2.30;;
8419;SDS011;4247;48.550;8.822;2024-02-21T00:45:28;3.73;;;1.30;;
8419;SDS011;4247;48.550;8.822;2024-02-21T00:47:56;8.33;;;2.20;;
8419;SDS011;4247;48.550;8.822;2024-02-21T00:50:22;3.93;;;1.50;;
8419;SDS011;4247;48.550;8.822;2024-02-21T00:52:49;4.30;;;1.93;;
8419;SDS011;4247;48.550;8.822;2024-02-21T00:55:16;3.77;;;1.37;;
8419;SDS011;4247;48.550;8.822;2024-02-21T00:57:42;4.07;;;1.50;;
8419;SDS011;4247;48.550;8.822;2024-02-21T01:00:09;3.63;;;1.60;;
8419;SDS011;4247;48.550;8.822;2024-02-21T01:02:37;10.00;;;1.90;;
8419;SDS011;4247;48.550;8.822;2024-02-21T01:05:05;9.27;;;1.70;;
8419;SDS011;4247;48.550;8.822;2024-02-21T01:07:32;3.57;;;1.40;;
8419;SDS011;4247;48.550;8.822;2024-02-21T01:09:59;4.20;;;1.47;;
8419;SDS011;4247;48.550;8.822;2024-02-21T01:12:25;6.33;;;1.40;;
8419;SDS011;4247;48.550;8.822;2024-02-21T01:14:52;3.13;;;1.20;;
8419;SDS011;4247;48.550;8.822;2024-02-21T01:17:19;8.30;;;1.57;;
8419;SDS011;4247;48.550;8.822;2024-02-21T01:19:46;7.37;;;1.50;;
8419;SDS011;4247;48.550;8.822;2024-02-21T01:22:14;2.53;;;1.40;;
8419;SDS011;4247;48.550;8.822;2024-02-21T01:24:41;3.57;;;1.80;;
8419;SDS011;4247;48.550;8.822;2024-02-21T01:27:07;3.47;;;1.43;;
8419;SDS011;4247;48.550;8.822;2024-02-21T01:29:34;3.77;;;1.70;;
8419;SDS011;4247;48.550;8.822;2024-02-21T01:32:01;3.73;;;1.87;;
8419;SDS011;4247;48.550;8.822;2024-02-21T01:34:28;2.50;;;1.37;;
8419;SDS011;4247;48.550;8.822;2024-02-21T01:36:54;4.33;;;1.10;;
8419;SDS011;4247;48.550;8.822;2024-02-21T01:39:22;12.27;;;1.73;;
8419;SDS011;4247;48.550;8.822;2024-02-21T01:41:49;3.10;;;1.60;;
8419;SDS011;4247;48.550;8.822;2024-02-21T01:44:16;5.00;;;1.77;;
8419;SDS011;4247;48.550;8.822;2024-02-21T01:46:42;2.57;;;1.53;;
8419;SDS011;4247;48.550;8.822;2024-02-21T01:49:09;4.13;;;2.00;;
8419;SDS011;4247;48.550;8.822;2024-02-21T01:51:36;9.73;;;1.77;;
8419;SDS011;4247;48.550;8.822;2024-02-21T01:54:03;9.13;;;1.73;;
8419;SDS011;4247;48.550;8.822;2024-02-21T01:56:31;4.43;;;1.90;;
8419;SDS011;4247;48.550;8.822;2024-02-21T01:58:58;7.37;;;1.53;;
8419;SDS011;4247;48.550;8.822;2024-02-21T02:01:25;4.03;;;2.17;;
8419;SDS011;4247;48.550;8.822;2024-02-21T02:03:53;13.83;;;1.57;;
8419;SDS011;4247;48.550;8.822;2024-02-21T02:06:21;2.17;;;1.33;;
8419;SDS011;4247;48.550;8.822;2024-02-21T02:08:48;6.37;;;2.30;;
8419;SDS011;4247;48.550;8.822;2024-02-21T02:11:15;5.97;;;1.60;;
8419;SDS011;4247;48.550;8.822;2024-02-21T02:13:43;7.10;;;1.77;;
8419;SDS011;4247;48.550;8.822;2024-02-21T02:16:10;5.43;;;1.83;;
8419;SDS011;4247;48.550;8.822;2024-02-21T02:18:37;4.37;;;1.37;;
8419;SDS011;4247;48.550;8.822;2024-02-21T02:21:04;10.33;;;1.57;;
8419;SDS011;4247;48.550;8.822;2024-02-21T02:23:36;2.20;;;1.60;;
8419;SDS011;4247;48.550;8.822;2024-02-21T02:26:03;5.07;;;2.03;;
8419;SDS011;4247;48.550;8.822;2024-02-21T02:28:32;5.47;;;1.97;;
8419;SDS011;4247;48.550;8.822;2024-02-21T02:30:59;4.00;;;2.13;;
8419;SDS011;4247;48.550;8.822;2024-02-21T02:33:25;6.27;;;2.27;;
8419;SDS011;4247;48.550;8.822;2024-02-21T02:35:52;4.53;;;1.47;;
8419;SDS011;4247;48.550;8.822;2024-02-21T02:38:19;4.67;;;1.40;;
8419;SDS011;4247;48.550;8.822;2024-02-21T02:40:47;2.83;;;1.80;;
8419;SDS011;4247;48.550;8.822;2024-02-21T02:43:14;8.67;;;1.70;;
8419;SDS011;4247;48.550;8.822;2024-02-21T02:45:41;6.73;;;1.93;;
8419;SDS011;4247;48.550;8.822;2024-02-21T02:48:07;7.23;;;2.13;;
8419;SDS011;4247;48.550;8.822;2024-02-21T02:50:34;4.97;;;1.50;;
8419;SDS011;4247;48.550;8.822;2024-02-21T02:53:01;8.50;;;1.90;;
8419;SDS011;4247;48.550;8.822;2024-02-21T02:55:28;3.60;;;1.60;;
8419;SDS011;4247;48.550;8.822;2024-02-21T02:57:56;3.40;;;1.93;;
8419;SDS011;4247;48.550;8.822;2024-02-21T03:00:23;7.23;;;1.77;;
8419;SDS011;4247;48.550;8.822;2024-02-21T03:02:50;7.13;;;1.90;;
8419;SDS011;4247;48.550;8.822;2024-02-21T03:05:18;4.47;;;1.50;;
8419;SDS011;4247;48.550;8.822;2024-02-21T03:07:46;3.13;;;1.67;;
8419;SDS011;4247;48.550;8.822;2024-02-21T03:10:14;7.10;;;1.47;;
8419;SDS011;4247;48.550;8.822;2024-02-21T03:12:41;6.93;;;1.57;;
8419;SDS011;4247;48.550;8.822;2024-02-21T03:15:10;5.33;;;1.10;;
8419;SDS011;4247;48.550;8.822;2024-02-21T03:17:37;6.07;;;1.60;;
8419;SDS011;4247;48.550;8.822;2024-02-21T03:20:04;5.73;;;1.30;;
8419;SDS011;4247;48.550;8.822;2024-02-21T03:22:34;4.53;;;1.60;;
8419;SDS011;4247;48.550;8.822;2024-02-21T03:25:01;2.37;;;1.43;;
8419;SDS011;4247;48.550;8.822;2024-02-21T03:27:27;5.37;;;1.33;;
8419;SDS011;4247;48.550;8.822;2024-02-21T03:29:54;8.03;;;1.20;;
8419;SDS011;4247;48.550;8.822;2024-02-21T03:32:22;9.80;;;1.43;;
8419;SDS011;4247;48.550;8.822;2024-02-21T03:34:49;3.37;;;1.00;;
8419;SDS011;4247;48.550;8.822;2024-02-21T03:37:16;6.27;;;1.70;;
8419;SDS011;4247;48.550;8.822;2024-02-21T03:39:43;6.87;;;1.20;;
8419;SDS011;4247;48.550;8.822;2024-02-21T03:42:11;2.73;;;1.20;;
8419;SDS011;4247;48.550;8.822;2024-02-21T03:44:38;5.03;;;1.30;;
8419;SDS011;4247;48.550;8.822;2024-02-21T03:47:05;5.23;;;1.10;;
8419;SDS011;4247;48.550;8.822;2024-02-21T03:49:36;5.63;;;1.53;;
8419;SDS011;4247;48.550;8.822;2024-02-21T03:52:03;6.50;;;1.40;;
8419;SDS011;4247;48.550;8.822;2024-02-21T03:54:30;4.53;;;1.43;;
8419;SDS011;4247;48.550;8.822;2024-02-21T03:56:57;4.90;;;1.27;;
8419;SDS011;4247;48.550;8.822;2024-02-21T03:59:24;6.13;;;1.20;;
8419;SDS011;4247;48.550;8.822;2024-02-21T04:01:51;1.60;;;1.03;;
8419;SDS011;4247;48.550;8.822;2024-02-21T04:04:18;2.57;;;1.50;;
8419;SDS011;4247;48.550;8.822;2024-02-21T04:06:47;4.40;;;1.50;;
8419;SDS011;4247;48.550;8.822;2024-02-21T04:09:14;4.23;;;1.27;;
8419;SDS011;4247;48.550;8.822;2024-02-21T04:11:41;5.17;;;1.63;;
8419;SDS011;4247;48.550;8.822;2024-02-21T04:14:07;2.30;;;1.60;;
8419;SDS011;4247;48.550;8.822;2024-02-21T04:16:36;6.07;;;1.33;;
8419;SDS011;4247;48.550;8.822;2024-02-21T04:19:03;2.53;;;1.40;;
8419;SDS011;4247;48.550;8.822;2024-02-21T04:21:29;3.00;;;1.77;;
8419;SDS011;4247;48.550;8.822;2024-02-21T04:23:58;4.43;;;1.03;;
8419;SDS011;4247;48.550;8.822;2024-02-21T04:26:25;3.97;;;1.37;;
8419;SDS011;4247;48.550;8.822;2024-02-21T04:28:51;3.30;;;1.30;;
8419;SDS011;4247;48.550;8.822;2024-02-21T04:31:18;3.10;;;1.27;;
8419;SDS011;4247;48.550;8.822;2024-02-21T04:33:45;9.80;;;1.77;;
8419;SDS011;4247;48.550;8.822;2024-02-21T04:36:12;8.07;;;1.63;;
8419;SDS011;4247;48.550;8.822;2024-02-21T04:38:39;2.67;;;1.10;;
8419;SDS011;4247;48.550;8.822;2024-02-21T04:41:07;5.10;;;1.70;;
8419;SDS011;4247;48.550;8.822;2024-02-21T04:43:34;3.20;;;1.30;;
8419;SDS011;4247;48.550;8.822;2024-02-21T04:46:01;3.53;;;1.00;;
8419;SDS011;4247;48.550;8.822;2024-02-21T04:48:27;5.43;;;1.20;;
8419;SDS011;4247;48.550;8.822;2024-02-21T04:50:54;2.97;;;1.93;;
8419;SDS011;4247;48.550;8.822;2024-02-21T04:53:21;9.37;;;1.80;;
8419;SDS011;4247;48.550;8.822;2024-02-21T04:55:48;2.77;;;1.43;;
8419;SDS011;4247;48.550;8.822;2024-02-21T04:58:16;5.53;;;1.30;;
8419;SDS011;4247;48.550;8.822;2024-02-21T05:00:43;3.87;;;1.33;;
8419;SDS011;4247;48.550;8.822;2024-02-21T05:03:09;7.40;;;1.30;;
8419;SDS011;4247;48.550;8.822;2024-02-21T05:05:36;4.50;;;1.37;;
8419;SDS011;4247;48.550;8.822;2024-02-21T05:08:03;4.60;;;1.33;;
8419;SDS011;4247;48.550;8.822;2024-02-21T05:10:30;5.47;;;1.20;;
8419;SDS011;4247;48.550;8.822;2024-02-21T05:12:56;5.73;;;1.20;;
8419;SDS011;4247;48.550;8.822;2024-02-21T05:15:25;9.90;;;1.40;;
8419;SDS011;4247;48.550;8.822;2024-02-21T05:17:51;5.70;;;1.30;;
8419;SDS011;4247;48.550;8.822;2024-02-21T05:20:18;3.57;;;1.30;;
8419;SDS011;4247;48.550;8.822;2024-02-21T05:22:45;2.53;;;1.27;;
8419;SDS011;4247;48.550;8.822;2024-02-21T05:25:11;2.53;;;1.37;;
8419;SDS011;4247;48.550;8.822;2024-02-21T05:27:38;4.70;;;1.60;;
8419;SDS011;4247;48.550;8.822;2024-02-21T05:30:05;4.77;;;1.63;;
8419;SDS011;4247;48.550;8.822;2024-02-21T05:32:34;4.53;;;1.10;;
8419;SDS011;4247;48.550;8.822;2024-02-21T05:35:01;7.47;;;1.50;;
8419;SDS011;4247;48.550;8.822;2024-02-21T05:37:27;4.63;;;1.30;;
8419;SDS011;4247;48.550;8.822;2024-02-21T05:39:54;3.13;;;1.03;;
8419;SDS011;4247;48.550;8.822;2024-02-21T05:42:21;2.13;;;1.13;;
8419;SDS011;4247;48.550;8.822;2024-02-21T05:44:47;2.27;;;1.30;;
8419;SDS011;4247;48.550;8.822;2024-02-21T05:47:14;1.40;;;1.27;;
8419;SDS011;4247;48.550;8.822;2024-02-21T05:49:42;2.70;;;0.97;;
8419;SDS011;4247;48.550;8.822;2024-02-21T05:52:09;3.20;;;2.13;;
8419;SDS011;4247;48.550;8.822;2024-02-21T05:54:37;3.10;;;1.30;;
8419;SDS011;4247;48.550;8.822;2024-02-21T05:57:04;3.23;;;1.13;;
8419;SDS011;4247;48.550;8.822;2024-02-21T05:59:32;1.53;;;1.20;;
8419;SDS011;4247;48.550;8.822;2024-02-21T06:02:00;7.67;;;1.50;;
8419;SDS011;4247;48.550;8.822;2024-02-21T06:04:28;4.63;;;1.67;;
8419;SDS011;4247;48.550;8.822;2024-02-21T06:06:56;3.10;;;1.33;;
8419;SDS011;4247;48.550;8.822;2024-02-21T06:09:23;3.03;;;1.40;;
8419;SDS011;4247;48.550;8.822;2024-02-21T06:11:50;5.87;;;1.77;;
8419;SDS011;4247;48.550;8.822;2024-02-21T06:14:17;9.03;;;2.83;;
8419;SDS011;4247;48.550;8.822;2024-02-21T06:16:43;5.10;;;1.80;;
8419;SDS011;4247;48.550;8.822;2024-02-21T06:19:10;9.63;;;2.87;;
8419;SDS011;4247;48.550;8.822;2024-02-21T06:21:37;8.90;;;2.77;;
8419;SDS011;4247;48.550;8.822;2024-02-21T06:24:05;5.87;;;2.00;;
8419;SDS011;4247;48.550;8.822;2024-02-21T06:26:32;3.97;;;1.43;;
8419;SDS011;4247;48.550;8.822;2024-02-21T06:28:59;2.70;;;1.13;;
8419;SDS011;4247;48.550;8.822;2024-02-21T06:31:27;2.10;;;1.80;;
8419;SDS011;4247;48.550;8.822;2024-02-21T06:33:53;3.33;;;1.40;;
8419;SDS011;4247;48.550;8.822;2024-02-21T06:36:20;2.67;;;1.47;;
8419;SDS011;4247;48.550;8.822;2024-02-21T06:38:47;5.00;;;1.30;;
8419;SDS011;4247;48.550;8.822;2024-02-21T06:41:17;2.43;;;1.43;;
8419;SDS011;4247;48.550;8.822;2024-02-21T06:43:44;4.43;;;1.27;;
8419;SDS011;4247;48.550;8.822;2024-02-21T06:46:11;15.33;;;1.50;;
8419;SDS011;4247;48.550;8.822;2024-02-21T06:48:38;6.40;;;1.20;;
8419;SDS011;4247;48.550;8.822;2024-02-21T06:51:04;1.07;;;0.87;;
8419;SDS011;4247;48.550;8.822;2024-02-21T06:53:31;2.30;;;1.27;;
8419;SDS011;4247;48.550;8.822;2024-02-21T06:55:58;6.07;;;1.50;;
8419;SDS011;4247;48.550;8.822;2024-02-21T06:58:26;3.90;;;1.50;;
8419;SDS011;4247;48.550;8.822;2024-02-21T07:00:52;5.73;;;1.47;;
8419;SDS011;4247;48.550;8.822;2024-02-21T07:03:19;6.13;;;1.70;;
8419;SDS011;4247;48.550;8.822;2024-02-21T07:05:46;7.03;;;2.10;;
8419;SDS011;4247;48.550;8.822;2024-02-21T07:08:12;3.23;;;1.50;;
8419;SDS011;4247;48.550;8.822;2024-02-21T07:10:39;4.90;;;1.20;;
8419;SDS011;4247;48.550;8.822;2024-02-21T07:13:05;2.70;;;1.33;;
8419;SDS011;4247;48.550;8.822;2024-02-21T07:15:33;6.03;;;1.63;;
8419;SDS011;4247;48.550;8.822;2024-02-21T07:18:01;3.83;;;1.00;;
8419;SDS011;4247;48.550;8.822;2024-02-21T07:20:28;3.43;;;1.83;;
8419;SDS011;4247;48.550;8.822;2024-02-21T07:22:54;3.10;;;1.47;;
8419;SDS011;4247;48.550;8.822;2024-02-21T07:25:21;8.30;;;2.20;;
8419;SDS011;4247;48.550;8.822;2024-02-21T07:27:47;5.33;;;1.70;;
8419;SDS011;4247;48.550;8.822;2024-02-21T07:30:14;9.77;;;1.67;;
8419;SDS011;4247;48.550;8.822;2024-02-21T07:32:42;8.37;;;1.97;;
8419;SDS011;4247;48.550;8.822;2024-02-21T07:35:09;7.27;;;2.70;;
8419;SDS011;4247;48.550;8.822;2024-02-21T07:37:37;10.13;;;2.23;;
8419;SDS011;4247;48.550;8.822;2024-02-21T07:40:04;5.83;;;2.30;;
8419;SDS011;4247;48.550;8.822;2024-02-21T07:42:32;4.50;;;2.17;;
8419;SDS011;4247;48.550;8.822;2024-02-21T07:44:58;8.07;;;1.63;;
8419;SDS011;4247;48.550;8.822;2024-02-21T07:47:25;10.23;;;2.10;;
8419;SDS011;4247;48.550;8.822;2024-02-21T07:49:53;8.63;;;2.77;;
8419;SDS011;4247;48.550;8.822;2024-02-21T07:52:20;4.83;;;3.27;;
8419;SDS011;4247;48.550;8.822;2024-02-21T07:54:46;5.53;;;1.80;;
8419;SDS011;4247;48.550;8.822;2024-02-21T07:57:13;5.30;;;2.13;;
8419;SDS011;4247;48.550;8.822;2024-02-21T07:59:40;5.20;;;2.27;;
8419;SDS011;4247;48.550;8.822;2024-02-21T08:02:07;5.33;;;1.80;;
8419;SDS011;4247;48.550;8.822;2024-02-21T08:04:34;1.63;;;1.40;;
8419;SDS011;4247;48.550;8.822;2024-02-21T08:07:02;7.43;;;1.70;;
8419;SDS011;4247;48.550;8.822;2024-02-21T08:09:29;8.13;;;1.57;;
8419;SDS011;4247;48.550;8.822;2024-02-21T08:11:56;2.40;;;1.80;;
8419;SDS011;4247;48.550;8.822;2024-02-21T08:14:23;8.73;;;1.90;;
8419;SDS011;4247;48.550;8.822;2024-02-21T08:16:50;3.67;;;2.00;;
8419;SDS011;4247;48.550;8.822;2024-02-21T08:19:18;3.27;;;1.87;;
8419;SDS011;4247;48.550;8.822;2024-02-21T08:21:44;6.97;;;2.47;;
8419;SDS011;4247;48.550;8.822;2024-02-21T08:24:13;10.63;;;2.10;;
8419;SDS011;4247;48.550;8.822;2024-02-21T08:26:40;6.03;;;1.90;;
8419;SDS011;4247;48.550;8.822;2024-02-21T08:29:09;4.07;;;2.23;;
8419;SDS011;4247;48.550;8.822;2024-02-21T08:31:35;4.87;;;2.17;;
8419;SDS011;4247;48.550;8.822;2024-02-21T08:34:02;5.73;;;2.07;;
8419;SDS011;4247;48.550;8.822;2024-02-21T08:36:29;10.10;;;1.50;;
8419;SDS011;4247;48.550;8.822;2024-02-21T08:38:56;2.50;;;1.33;;
8419;SDS011;4247;48.550;8.822;2024-02-21T08:41:24;8.13;;;2.00;;
8419;SDS011;4247;48.550;8.822;2024-02-21T08:43:51;3.33;;;1.40;;
8419;SDS011;4247;48.550;8.822;2024-02-21T08:46:18;6.40;;;1.87;;
8419;SDS011;4247;48.550;8.822;2024-02-21T08:48:45;5.17;;;1.33;;
8419;SDS011;4247;48.550;8.822;2024-02-21T08:51:12;5.83;;;1.87;;
8419;SDS011;4247;48.550;8.822;2024-02-21T08:53:39;5.43;;;1.43;;
8419;SDS011;4247;48.550;8.822;2024-02-21T08:56:07;7.60;;;1.63;;
8419;SDS011;4247;48.550;8.822;2024-02-21T08:58:35;5.57;;;1.40;;
8419;SDS011;4247;48.550;8.822;2024-02-21T09:01:03;5.43;;;1.67;;
8419;SDS011;4247;48.550;8.822;2024-02-21T09:03:30;4.63;;;1.93;;
8419;SDS011;4247;48.550;8.822;2024-02-21T09:05:57;7.37;;;1.37;;
8419;SDS011;4247;48.550;8.822;2024-02-21T09:08:24;7.53;;;1.90;;
8419;SDS011;4247;48.550;8.822;2024-02-21T09:10:51;5.50;;;1.63;;
8419;SDS011;4247;48.550;8.822;2024-02-21T09:13:18;4.20;;;1.30;;
8419;SDS011;4247;48.550;8.822;2024-02-21T09:15:46;8.43;;;1.70;;
8419;SDS011;4247;48.550;8.822;2024-02-21T09:18:13;2.63;;;1.33;;
8419;SDS011;4247;48.550;8.822;2024-02-21T09:20:40;5.63;;;2.13;;
8419;SDS011;4247;48.550;8.822;2024-02-21T09:23:07;5.53;;;1.57;;
8419;SDS011;4247;48.550;8.822;2024-02-21T09:25:33;9.63;;;2.03;;
8419;SDS011;4247;48.550;8.822;2024-02-21T09:28:00;6.97;;;2.43;;
8419;SDS011;4247;48.550;8.822;2024-02-21T09:30:28;4.53;;;1.43;;
8419;SDS011;4247;48.550;8.822;2024-02-21T09:32:56;5.37;;;1.70;;
8419;SDS011;4247;48.550;8.822;2024-02-21T09:35:24;2.30;;;1.30;;
8419;SDS011;4247;48.550;8.822;2024-02-21T09:37:52;4.17;;;1.13;;
8419;SDS011;4247;48.550;8.822;2024-02-21T09:40:19;5.50;;;1.10;;
8419;SDS011;4247;48.550;8.822;2024-02-21T09:42:46;5.43;;;0.90;;
8419;SDS011;4247;48.550;8.822;2024-02-21T09:45:15;7.90;;;1.43;;
8419;SDS011;4247;48.550;8.822;2024-02-21T09:47:50;6.07;;;1.73;;
8419;SDS011;4247;48.550;8.822;2024-02-21T09:50:30;5.13;;;1.27;;
8419;SDS011;4247;48.550;8.822;2024-02-21T09:53:00;3.60;;;1.00;;
8419;SDS011;4247;48.550;8.822;2024-02-21T09:55:27;8.10;;;1.30;;
8419;SDS011;4247;48.550;8.822;2024-02-21T09:57:57;5.67;;;1.00;;
8419;SDS011;4247;48.550;8.822;2024-02-21T10:00:25;7.13;;;1.13;;
8419;SDS011;4247;48.550;8.822;2024-02-21T10:02:53;5.27;;;1.47;;
8419;SDS011;4247;48.550;8.822;2024-02-21T10:05:22;1.90;;;0.90;;
8419;SDS011;4247;48.550;8.822;2024-02-21T10:07:49;8.40;;;1.60;;
8419;SDS011;4247;48.550;8.822;2024-02-21T10:10:17;2.53;;;1.10;;
8419;SDS011;4247;48.550;8.822;2024-02-21T10:12:50;3.43;;;1.27;;
8419;SDS011;4247;48.550;8.822;2024-02-21T10:15:19;3.60;;;1.30;;
8419;SDS011;4247;48.550;8.822;2024-02-21T10:17:48;5.37;;;1.30;;
8419;SDS011;4247;48.550;8.822;2024-02-21T10:20:15;6.40;;;1.47;;
8419;SDS011;4247;48.550;8.822;2024-02-21T10:22:43;2.40;;;0.80;;
8419;SDS011;4247;48.550;8.822;2024-02-21T10:25:10;2.20;;;1.43;;
8419;SDS011;4247;48.550;8.822;2024-02-21T10:27:38;3.93;;;1.07;;
8419;SDS011;4247;48.550;8.822;2024-02-21T10:30:06;2.77;;;1.30;;
8419;SDS011;4247;48.550;8.822;2024-02-21T10:32:48;3.03;;;1.00;;
8419;SDS011;4247;48.550;8.822;2024-02-21T10:35:15;4.30;;;0.90;;
8419;SDS011;4247;48.550;8.822;2024-02-21T10:37:53;5.60;;;0.70;;
8419;SDS011;4247;48.550;8.822;2024-02-21T10:40:21;7.90;;;1.13;;
8419;SDS011;4247;48.550;8.822;2024-02-21T10:42:50;3.63;;;1.20;;
8419;SDS011;4247;48.550;8.822;2024-02-21T10:45:22;3.63;;;0.93;;
8419;SDS011;4247;48.550;8.822;2024-02-21T10:47:52;5.50;;;1.37;;
8419;SDS011;4247;48.550;8.822;2024-02-21T10:50:26;2.90;;;1.00;;
8419;SDS011;4247;48.550;8.822;2024-02-21T10:53:00;5.00;;;0.83;;
8419;SDS011;4247;48.550;8.822;2024-02-21T10:55:36;4.17;;;0.60;;
8419;SDS011;4247;48.550;8.822;2024-02-21T10:58:05;4.80;;;0.83;;
8419;SDS011;4247;48.550;8.822;2024-02-21T11:00:31;1.10;;;0.60;;
8419;SDS011;4247;48.550;8.822;2024-02-21T11:03:00;3.93;;;0.87;;
8419;SDS011;4247;48.550;8.822;2024-02-21T11:05:28;1.50;;;0.90;;
8419;SDS011;4247;48.550;8.822;2024-02-21T11:07:55;4.00;;;0.90;;
8419;SDS011;4247;48.550;8.822;2024-02-21T11:10:24;3.03;;;1.10;;
8419;SDS011;4247;48.550;8.822;2024-02-21T11:12:52;4.77;;;1.10;;
8419;SDS011;4247;48.550;8.822;2024-02-21T11:15:24;3.93;;;0.87;;
8419;SDS011;4247;48.550;8.822;2024-02-21T11:17:55;2.60;;;0.93;;
8419;SDS011;4247;48.550;8.822;2024-02-21T11:20:31;4.30;;;1.50;;
8419;SDS011;4247;48.550;8.822;2024-02-21T11:22:58;1.07;;;0.50;;
8419;SDS011;4247;48.550;8.822;2024-02-21T11:25:27;2.90;;;0.53;;
8419;SDS011;4247;48.550;8.822;2024-02-21T11:27:59;4.03;;;1.20;;
8419;SDS011;4247;48.550;8.822;2024-02-21T11:30:26;1.50;;;0.70;;
8419;SDS011;4247;48.550;8.822;2024-02-21T11:32:58;2.27;;;0.70;;
8419;SDS011;4247;48.550;8.822;2024-02-21T11:35:26;1.20;;;0.73;;
8419;SDS011;4247;48.550;8.822;2024-02-21T11:38:07;6.10;;;0.80;;
8419;SDS011;4247;48.550;8.822;2024-02-21T11:40:37;3.13;;;1.23;;
8419;SDS011;4247;48.550;8.822;2024-02-21T11:43:05;4.57;;;1.37;;
8419;SDS011;4247;48.550;8.822;2024-02-21T11:45:31;2.63;;;1.20;;
8419;SDS011;4247;48.550;8.822;2024-02-21T11:47:58;3.83;;;1.03;;
8419;SDS011;4247;48.550;8.822;2024-02-21T11:50:28;3.23;;;0.70;;
8419;SDS011;4247;48.550;8.822;2024-02-21T11:52:55;2.40;;;0.87;;
8419;SDS011;4247;48.550;8.822;2024-02-21T11:55:22;1.70;;;0.80;;
8419;SDS011;4247;48.550;8.822;2024-02-21T11:57:50;2.77;;;0.60;;
8419;SDS011;4247;48.550;8.822;2024-02-21T12:00:18;5.57;;;1.27;;
8419;SDS011;4247;48.550;8.822;2024-02-21T12:02:46;0.80;;;0.73;;
8419;SDS011;4247;48.550;8.822;2024-02-21T12:05:15;2.37;;;0.77;;
8419;SDS011;4247;48.550;8.822;2024-02-21T12:07:42;3.33;;;0.50;;
8419;SDS011;4247;48.550;8.822;2024-02-21T12:10:09;1.23;;;0.60;;
8419;SDS011;4247;48.550;8.822;2024-02-21T12:12:36;1.67;;;0.60;;
8419;SDS011;4247;48.550;8.822;2024-02-21T12:15:06;0.80;;;0.50;;
8419;SDS011;4247;48.550;8.822;2024-02-21T12:17:33;1.27;;;0.40;;
8419;SDS011;4247;48.550;8.822;2024-02-21T12:20:00;2.87;;;0.70;;
8419;SDS011;4247;48.550;8.822;2024-02-21T12:22:28;0.87;;;0.50;;
8419;SDS011;4247;48.550;8.822;2024-02-21T12:24:57;0.83;;;0.40;;
8419;SDS011;4247;48.550;8.822;2024-02-21T12:27:24;1.03;;;0.47;;
8419;SDS011;4247;48.550;8.822;2024-02-21T12:29:51;6.27;;;0.77;;
8419;SDS011;4247;48.550;8.822;2024-02-21T12:32:19;4.50;;;0.80;;
8419;SDS011;4247;48.550;8.822;2024-02-21T12:34:46;3.33;;;0.40;;
8419;SDS011;4247;48.550;8.822;2024-02-21T12:37:13;4.20;;;0.60;;
8419;SDS011;4247;48.550;8.822;2024-02-21T12:39:40;1.17;;;0.30;;
8419;SDS011;4247;48.550;8.822;2024-02-21T12:42:07;6.23;;;1.17;;
8419;SDS011;4247;48.550;8.822;2024-02-21T12:44:36;4.60;;;0.30;;
8419;SDS011;4247;48.550;8.822;2024-02-21T12:47:03;3.63;;;0.87;;
8419;SDS011;4247;48.550;8.822;2024-02-21T12:49:31;3.37;;;0.60;;
8419;SDS011;4247;48.550;8.822;2024-02-21T12:51:58;1.67;;;0.40;;
8419;SDS011;4247;48.550;8.822;2024-02-21T12:54:25;0.80;;;0.47;;
8419;SDS011;4247;48.550;8.822;2024-02-21T12:56:52;2.47;;;0.50;;
8419;SDS011;4247;48.550;8.822;2024-02-21T12:59:18;2.83;;;0.53;;
8419;SDS011;4247;48.550;8.822;2024-02-21T13:01:45;2.73;;;0.60;;
8419;SDS011;4247;48.550;8.822;2024-02-21T13:04:12;5.80;;;0.60;;
8419;SDS011;4247;48.550;8.822;2024-02-21T13:06:41;2.83;;;1.00;;
8419;SDS011;4247;48.550;8.822;2024-02-21T13:09:09;1.30;;;0.60;;
8419;SDS011;4247;48.550;8.822;2024-02-21T13:11:38;1.00;;;0.43;;
8419;SDS011;4247;48.550;8.822;2024-02-21T13:14:06;2.00;;;0.30;;
8419;SDS011;4247;48.550;8.822;2024-02-21T13:16:33;1.97;;;0.77;;
8419;SDS011;4247;48.550;8.822;2024-02-21T13:19:04;4.27;;;0.70;;
8419;SDS011;4247;48.550;8.822;2024-02-21T13:21:31;1.37;;;0.43;;
8419;SDS011;4247;48.550;8.822;2024-02-21T13:23:59;0.83;;;0.50;;
8419;SDS011;4247;48.550;8.822;2024-02-21T13:26:25;0.73;;;0.30;;
8419;SDS011;4247;48.550;8.822;2024-02-21T13:28:52;1.90;;;0.63;;
8419;SDS011;4247;48.550;8.822;2024-02-21T13:31:19;2.53;;;0.83;;
8419;SDS011;4247;48.550;8.822;2024-02-21T13:33:46;4.43;;;0.87;;
8419;SDS011;4247;48.550;8.822;2024-02-21T13:36:13;4.67;;;1.00;;
8419;SDS011;4247;48.550;8.822;2024-02-21T13:38:40;3.57;;;0.90;;
8419;SDS011;4247;48.550;8.822;2024-02-21T13:41:08;0.43;;;0.43;;
8419;SDS011;4247;48.550;8.822;2024-02-21T13:43:35;3.17;;;0.90;;
8419;SDS011;4247;48.550;8.822;2024-02-21T13:46:02;0.40;;;0.40;;
8419;SDS011;4247;48.550;8.822;2024-02-21T13:48:30;3.00;;;0.70;;
8419;SDS011;4247;48.550;8.822;2024-02-21T13:50:58;1.80;;;0.80;;
8419;SDS011;4247;48.550;8.822;2024-02-21T13:53:27;3.80;;;0.70;;
8419;SDS011;4247;48.550;8.822;2024-02-21T13:55:53;3.53;;;0.70;;
8419;SDS011;4247;48.550;8.822;2024-02-21T13:58:21;0.60;;;0.60;;
8419;SDS011;4247;48.550;8.822;2024-02-21T14:00:48;1.73;;;0.63;;
8419;SDS011;4247;48.550;8.822;2024-02-21T14:03:15;1.37;;;0.67;;
8419;SDS011;4247;48.550;8.822;2024-02-21T14:05:43;2.23;;;0.67;;
8419;SDS011;4247;48.550;8.822;2024-02-21T14:08:10;2.20;;;0.60;;
8419;SDS011;4247;48.550;8.822;2024-02-21T14:10:36;1.77;;;0.60;;
8419;SDS011;4247;48.550;8.822;2024-02-21T14:13:03;2.03;;;0.63;;
8419;SDS011;4247;48.550;8.822;2024-02-21T14:15:31;5.90;;;0.80;;
8419;SDS011;4247;48.550;8.822;2024-02-21T14:17:58;2.03;;;1.00;;
8419;SDS011;4247;48.550;8.822;2024-02-21T14:20:24;1.77;;;0.90;;
8419;SDS011;4247;48.550;8.822;2024-02-21T14:22:51;0.90;;;0.80;;
8419;SDS011;4247;48.550;8.822;2024-02-21T14:25:18;5.27;;;1.10;;
8419;SDS011;4247;48.550;8.822;2024-02-21T14:27:45;3.17;;;0.80;;
8419;SDS011;4247;48.550;8.822;2024-02-21T14:30:11;1.70;;;0.83;;
8419;SDS011;4247;48.550;8.822;2024-02-21T14:32:40;2.70;;;1.10;;
8419;SDS011;4247;48.550;8.822;2024-02-21T14:35:10;0.90;;;0.80;;
8419;SDS011;4247;48.550;8.822;2024-02-21T14:37:36;1.53;;;0.70;;
8419;SDS011;4247;48.550;8.822;2024-02-21T14:40:03;2.53;;;1.03;;
8419;SDS011;4247;48.550;8.822;2024-02-21T14:42:30;2.90;;;1.60;;
8419;SDS011;4247;48.550;8.822;2024-02-21T14:44:57;3.37;;;2.17;;
8419;SDS011;4247;48.550;8.822;2024-02-21T14:47:28;1.53;;;1.00;;
8419;SDS011;4247;48.550;8.822;2024-02-21T14:49:57;6.73;;;1.07;;
8419;SDS011;4247;48.550;8.822;2024-02-21T14:52:24;2.80;;;0.60;;
8419;SDS011;4247;48.550;8.822;2024-02-21T14:54:52;4.20;;;1.00;;
8419;SDS011;4247;48.550;8.822;2024-02-21T14:57:19;2.43;;;0.50;;
8419;SDS011;4247;48.550;8.822;2024-02-21T14:59:46;2.17;;;0.60;;
8419;SDS011;4247;48.550;8.822;2024-02-21T15:02:14;1.83;;;0.60;;
8419;SDS011;4247;48.550;8.822;2024-02-21T15:04:41;3.47;;;1.27;;
8419;SDS011;4247;48.550;8.822;2024-02-21T15:07:09;4.43;;;1.30;;
8419;SDS011;4247;48.550;8.822;2024-02-21T15:09:36;4.07;;;1.37;;
8419;SDS011;4247;48.550;8.822;2024-02-21T15:12:02;1.43;;;0.80;;
8419;SDS011;4247;48.550;8.822;2024-02-21T15:14:31;1.87;;;0.80;;
8419;SDS011;4247;48.550;8.822;2024-02-21T15:16:57;2.90;;;0.90;;